Kezdőlap
METAR-TAF:

METAR-TAF

Repülőterek :

Edmonton, Alberta, Kanada

földrajzi szélesség: 53-18N, földrajzi hosszúság: 113-35W, magasság: 715 m

Jelenlegi meteorológiai megfigyelések

A jelentés 59 perccel ezelõtt készült, 18:00 UTC
Nyugat-délnyugati szél 7 kt
Hőmérséklet 19°C
Páratartalom 22%
Légköri nyomás 1018 hPa
Látótávolság: 32.2 km
Szakadozott felhőzet 25000 lábon

METAR: CYEG 171800Z 24007KT 20SM BKN250 19/M03 A3006 RMK CI6 SLP196 DENSITY ALT 3300FT

Idő: 12:59 (18:59 UTC)

Előrejelzés

A jelentés 1 órával és 21 perccel ezelõtt készült, 17:38 UTC
Az előrejelzés 17-én 18 óra UTC és 18-én 18 óra UTC között érvényes
Délnyugati szél 6 kt
Látótávolság: 10 km
Kevés felhő 26000 lábon
18-én 08 óra UTC és 18-én 10 óra UTC között fokozatosan kialakuló
Nyugat-északnyugati szél 8 kt

TAF: CYEG 171738Z 1718/1818 23006KT P6SM FEW260 BECMG 1808/1810 30008KT RMK NXT FCST BY 172100Z

Meteorológiai megfigyelések és előrejelzések több, mint 4000 repülőtéren (METAR és TAF jelentéseket).

A térképen piros és sárga pontok jelzik az elérhető meteorológiai állomásokat.

Mozgassa az egeret a pont fölött, hogy megjelenjen az állomás neve.

Azután kattintson az időjárási megfigyelések és előrejelzések megtekintéséhez.

A térkép megváltoztatása: kattintson a fekete keresztel jelölt zöld gombra ráközelítéshez, a vonallal jelölt zöld gombra távolításhoz, vagy a zöld nyilakra a szomszédos térképek eléréséhez.


METAR-TAF: